createdAt,value
2023-08-11T00:08:24.483Z,101088.81
2023-08-11T00:10:50.914Z,101084.41
2023-08-11T00:13:17.384Z,101080.50
2023-08-11T00:15:44.745Z,101084.69
2023-08-11T00:18:11.334Z,101090.78
2023-08-11T00:20:38.655Z,101087.03
2023-08-11T00:23:05.367Z,101084.25
2023-08-11T00:25:32.027Z,101088.31
2023-08-11T00:27:59.753Z,101083.06
2023-08-11T00:30:26.279Z,101082.69
2023-08-11T00:32:52.767Z,101092.16
2023-08-11T00:35:19.184Z,101088.72
2023-08-11T00:37:45.718Z,101093.47
2023-08-11T00:40:13.084Z,101087.81
2023-08-11T00:42:39.639Z,101086.28
2023-08-11T00:45:07.885Z,101078.41
2023-08-11T00:47:34.351Z,101086.13
2023-08-11T00:50:01.086Z,101077.09
2023-08-11T00:52:27.673Z,101083.47
2023-08-11T00:54:55.147Z,101092.03
2023-08-11T00:57:21.934Z,101084.69
2023-08-11T00:59:49.764Z,101085.00
2023-08-11T01:02:16.850Z,101086.84
2023-08-11T01:04:44.091Z,101086.16
2023-08-11T01:07:28.801Z,101076.75
2023-08-11T01:10:13.791Z,101076.88
2023-08-11T01:12:54.833Z,101077.34
2023-08-11T01:15:25.455Z,101080.16
2023-08-11T01:17:53.973Z,101078.47
2023-08-11T01:20:21.926Z,101073.50
2023-08-11T01:22:53.108Z,101074.81
2023-08-11T01:25:20.200Z,101067.31
2023-08-11T01:27:53.695Z,101068.00
2023-08-11T01:30:20.192Z,101071.03
2023-08-11T01:32:46.628Z,101066.94
2023-08-11T01:35:17.313Z,101065.72
2023-08-11T01:37:49.266Z,101060.06
2023-08-11T01:40:16.036Z,101060.06
2023-08-11T01:42:53.742Z,101058.81
2023-08-11T01:45:22.453Z,101062.94
2023-08-11T01:47:49.705Z,101065.78
2023-08-11T01:50:17.421Z,101051.72
2023-08-11T01:52:46.923Z,101057.50
2023-08-11T01:55:14.502Z,101062.28
2023-08-11T01:57:52.158Z,101061.44
2023-08-11T02:00:24.703Z,101057.59
2023-08-11T02:02:51.265Z,101056.75
2023-08-11T02:05:17.849Z,101059.50
2023-08-11T02:07:46.048Z,101048.16
2023-08-11T02:10:13.180Z,101056.78
2023-08-11T02:12:41.231Z,101048.59
2023-08-11T02:15:08.580Z,101045.50
2023-08-11T02:17:35.979Z,101048.06
2023-08-11T02:20:13.745Z,101043.97
2023-08-11T02:22:40.212Z,101041.28
2023-08-11T02:25:06.942Z,101039.53
2023-08-11T02:27:33.305Z,101048.66
2023-08-11T02:29:59.738Z,101041.88
2023-08-11T02:32:26.144Z,101044.56
2023-08-11T02:34:52.538Z,101051.56
2023-08-11T02:37:18.930Z,101053.97
2023-08-11T02:39:45.322Z,101050.19
2023-08-11T02:42:11.688Z,101053.03
2023-08-11T02:44:38.058Z,101050.28
2023-08-11T02:47:04.487Z,101047.88
2023-08-11T02:49:30.893Z,101049.91
2023-08-11T02:51:57.305Z,101044.41
2023-08-11T02:54:23.730Z,101050.91
2023-08-11T02:56:50.196Z,101052.03
2023-08-11T02:59:16.564Z,101050.50
2023-08-11T03:01:43.200Z,101056.75
2023-08-11T03:04:09.670Z,101055.03
2023-08-11T03:06:36.047Z,101053.50
2023-08-11T03:09:02.655Z,101054.88
2023-08-11T03:11:30.336Z,101061.41
2023-08-11T03:13:57.074Z,101061.81
2023-08-11T03:16:26.231Z,101053.34
2023-08-11T03:18:53.797Z,101066.09
2023-08-11T03:21:20.856Z,101067.81
2023-08-11T03:23:47.619Z,101062.28
2023-08-11T03:26:14.582Z,101055.47
2023-08-11T03:28:41.285Z,101057.63
2023-08-11T03:31:07.832Z,101063.63
2023-08-11T03:33:34.424Z,101067.91
2023-08-11T03:36:00.954Z,101073.19
2023-08-11T03:38:27.303Z,101070.91
2023-08-11T03:40:53.780Z,101071.06
2023-08-11T03:43:20.227Z,101065.41
2023-08-11T03:45:46.642Z,101067.25
2023-08-11T03:48:13.045Z,101068.97
2023-08-11T03:50:39.524Z,101055.22
2023-08-11T03:53:05.988Z,101059.19
2023-08-11T03:55:32.404Z,101061.63
2023-08-11T03:57:58.853Z,101064.72
2023-08-11T04:00:25.309Z,101066.44
2023-08-11T04:02:51.879Z,101065.72
2023-08-11T04:05:18.625Z,101060.72
2023-08-11T04:07:45.071Z,101060.16
2023-08-11T04:10:13.283Z,101062.56
2023-08-11T04:12:39.889Z,101056.03
2023-08-11T04:15:06.814Z,101060.72
2023-08-11T04:17:34.892Z,101053.94
2023-08-11T04:20:01.863Z,101059.75
2023-08-11T04:22:38.094Z,101064.16
2023-08-11T04:25:07.000Z,101067.44
2023-08-11T04:27:33.401Z,101073.53
2023-08-11T04:29:59.923Z,101069.13
2023-08-11T04:32:26.496Z,101067.69
2023-08-11T04:34:52.943Z,101072.53
2023-08-11T04:37:19.599Z,101073.38
2023-08-11T04:39:46.166Z,101065.31
2023-08-11T04:42:13.762Z,101073.09
2023-08-11T04:44:40.267Z,101073.25
2023-08-11T04:47:06.738Z,101081.94
2023-08-11T04:49:33.385Z,101082.03
2023-08-11T04:52:00.369Z,101087.03
2023-08-11T04:54:26.875Z,101094.81
2023-08-11T04:56:53.353Z,101079.47
2023-08-11T04:59:19.864Z,101092.22
2023-08-11T05:01:46.245Z,101084.09
2023-08-11T05:04:13.819Z,101085.69
2023-08-11T05:06:40.193Z,101087.75
2023-08-11T05:09:06.773Z,101094.28
2023-08-11T05:11:33.282Z,101092.69
2023-08-11T05:13:59.777Z,101090.41
2023-08-11T05:16:26.343Z,101099.91
2023-08-11T05:18:52.732Z,101100.34
2023-08-11T05:21:19.378Z,101099.03
2023-08-11T05:23:45.752Z,101102.16
2023-08-11T05:26:12.261Z,101102.84
2023-08-11T05:28:38.701Z,101105.66
2023-08-11T05:31:05.766Z,101105.91
2023-08-11T05:33:32.606Z,101101.03
2023-08-11T05:35:59.078Z,101104.53
2023-08-11T05:38:25.822Z,101099.34
2023-08-11T05:40:52.799Z,101101.00
2023-08-11T05:43:19.482Z,101101.91
2023-08-11T05:45:45.957Z,101101.22
2023-08-11T05:48:12.430Z,101102.31
2023-08-11T05:50:39.533Z,101108.66
2023-08-11T05:53:06.242Z,101108.19
2023-08-11T05:55:32.709Z,101110.13
2023-08-11T05:57:59.246Z,101105.78
2023-08-11T06:00:25.699Z,101100.44
2023-08-11T06:02:52.099Z,101114.75
2023-08-11T06:05:22.600Z,101114.06
2023-08-11T06:08:03.830Z,101125.28
2023-08-11T06:10:33.273Z,101121.28
2023-08-11T06:12:59.789Z,101115.09
2023-08-11T06:15:26.585Z,101113.56
2023-08-11T06:17:53.886Z,101114.41
2023-08-11T06:20:34.447Z,101113.94
2023-08-11T06:23:05.828Z,101110.94
2023-08-11T06:25:32.323Z,101112.94
2023-08-11T06:27:58.721Z,101112.63
2023-08-11T06:30:25.182Z,101115.72
2023-08-11T06:32:51.873Z,101116.91
2023-08-11T06:35:18.267Z,101115.38
2023-08-11T06:37:45.577Z,101120.81
2023-08-11T06:40:12.970Z,101109.47
2023-08-11T06:42:39.443Z,101111.69
2023-08-11T06:45:06.980Z,101111.19
2023-08-11T06:47:35.806Z,101107.81
2023-08-11T06:50:04.041Z,101107.16
2023-08-11T06:52:30.564Z,101113.94
2023-08-11T06:54:57.012Z,101105.13
2023-08-11T06:57:24.312Z,101110.84
2023-08-11T06:59:50.860Z,101112.72
2023-08-11T07:02:17.319Z,101111.38
2023-08-11T07:04:43.858Z,101118.66
2023-08-11T07:07:10.548Z,101119.47
2023-08-11T07:09:37.586Z,101126.38
2023-08-11T07:12:04.301Z,101128.03
2023-08-11T07:14:30.742Z,101137.72
2023-08-11T07:16:57.275Z,101140.91
2023-08-11T07:19:23.803Z,101135.75
2023-08-11T07:21:50.278Z,101138.41
2023-08-11T07:24:16.715Z,101136.34
2023-08-11T07:26:43.093Z,101133.91
2023-08-11T07:29:09.585Z,101136.41
2023-08-11T07:31:36.121Z,101137.69
2023-08-11T07:34:02.660Z,101140.75
2023-08-11T07:36:29.108Z,101142.34
2023-08-11T07:39:00.165Z,101137.81
2023-08-11T07:41:36.387Z,101136.06
2023-08-11T07:44:03.570Z,101131.47
2023-08-11T07:46:30.026Z,101137.63
2023-08-11T07:48:56.512Z,101130.78
2023-08-11T07:51:23.096Z,101131.66
2023-08-11T07:53:50.276Z,101128.34
2023-08-11T07:56:16.679Z,101141.09
2023-08-11T07:58:43.794Z,101126.75
2023-08-11T08:01:10.321Z,101124.03
2023-08-11T08:03:36.854Z,101131.38
2023-08-11T08:06:06.182Z,101132.94
2023-08-11T08:08:34.878Z,101131.38
2023-08-11T08:11:02.394Z,101134.63
2023-08-11T08:13:30.002Z,101130.72
2023-08-11T08:15:56.657Z,101135.50
2023-08-11T08:18:23.288Z,101132.56
2023-08-11T08:20:49.990Z,101132.78
2023-08-11T08:23:16.477Z,101130.38
2023-08-11T08:25:43.400Z,101136.63
2023-08-11T08:28:11.944Z,101136.47
2023-08-11T08:30:38.456Z,101136.81
2023-08-11T08:33:07.432Z,101135.75
2023-08-11T08:35:34.579Z,101136.59
2023-08-11T08:38:01.049Z,101133.84
2023-08-11T08:40:28.755Z,101137.53
2023-08-11T08:42:55.652Z,101136.75
2023-08-11T08:45:22.841Z,101130.66
2023-08-11T08:47:52.056Z,101132.19
2023-08-11T08:50:19.278Z,101134.31
2023-08-11T08:52:47.184Z,101130.53
2023-08-11T08:55:13.706Z,101136.22
2023-08-11T08:57:40.582Z,101126.28
2023-08-11T09:00:08.931Z,101120.81
2023-08-11T09:02:36.210Z,101118.47
2023-08-11T09:05:03.126Z,101119.94
2023-08-11T09:07:29.585Z,101124.16
2023-08-11T09:09:55.930Z,101124.56
2023-08-11T09:12:22.405Z,101118.81
2023-08-11T09:14:49.043Z,101121.06
2023-08-11T09:17:16.927Z,101123.47
2023-08-11T09:19:53.000Z,101124.13
2023-08-11T09:22:26.479Z,101126.97
2023-08-11T09:24:54.868Z,101126.06
2023-08-11T09:27:22.720Z,101122.19
2023-08-11T09:29:50.746Z,101126.47
2023-08-11T09:32:17.161Z,101115.25
2023-08-11T09:34:44.852Z,101122.63
2023-08-11T09:37:11.656Z,101113.06
2023-08-11T09:39:38.314Z,101106.09
2023-08-11T09:42:05.357Z,101115.72
2023-08-11T09:44:31.869Z,101110.94
2023-08-11T09:46:58.932Z,101113.28
2023-08-11T09:49:25.411Z,101106.47
2023-08-11T09:51:55.238Z,101108.72
2023-08-11T09:54:23.098Z,101104.56
2023-08-11T09:56:49.695Z,101120.09
2023-08-11T09:59:19.512Z,101113.66
2023-08-11T10:01:47.118Z,101107.28
2023-08-11T10:04:23.981Z,101111.75
2023-08-11T10:06:54.243Z,101105.81
2023-08-11T10:09:24.354Z,101117.69
2023-08-11T10:11:53.722Z,101114.97
2023-08-11T10:14:22.509Z,101110.78
2023-08-11T10:16:48.969Z,101113.63
2023-08-11T10:19:15.676Z,101113.88
2023-08-11T10:21:42.552Z,101106.94
2023-08-11T10:24:09.150Z,101116.84
2023-08-11T10:26:36.419Z,101113.88
2023-08-11T10:29:03.473Z,101109.31
2023-08-11T10:31:33.569Z,101102.44
2023-08-11T10:34:06.313Z,101096.69
2023-08-11T10:36:33.368Z,101111.28
2023-08-11T10:39:07.294Z,101111.91
2023-08-11T10:41:34.362Z,101101.38
2023-08-11T10:44:01.219Z,101099.31
2023-08-11T10:46:30.902Z,101101.66
2023-08-11T10:49:22.050Z,101095.59
2023-08-11T10:51:51.221Z,101100.34
2023-08-11T10:54:23.633Z,101092.38
2023-08-11T10:56:52.328Z,101088.41
2023-08-11T10:59:26.619Z,101080.84
2023-08-11T11:01:55.014Z,101084.72
2023-08-11T11:04:23.472Z,101086.56
2023-08-11T11:06:52.227Z,101087.41
2023-08-11T11:09:22.088Z,101086.06
2023-08-11T11:11:51.722Z,101080.47
2023-08-11T11:14:18.438Z,101080.66
2023-08-11T11:16:45.025Z,101068.63
2023-08-11T11:19:11.513Z,101078.00
2023-08-11T11:21:41.280Z,101065.16
2023-08-11T11:24:08.985Z,101068.06
2023-08-11T11:26:35.529Z,101055.28
2023-08-11T11:29:04.103Z,101055.09
2023-08-11T11:31:35.281Z,101058.97
2023-08-11T11:34:03.337Z,101059.84
2023-08-11T11:36:30.175Z,101056.81
2023-08-11T11:38:57.010Z,101051.53
2023-08-11T11:41:23.644Z,101046.56
2023-08-11T11:43:51.756Z,101048.13
2023-08-11T11:46:22.255Z,101043.13
2023-08-11T11:48:51.710Z,101041.19
2023-08-11T11:51:24.898Z,101042.72
2023-08-11T11:53:52.910Z,101042.97
2023-08-11T11:56:19.823Z,101052.44
2023-08-11T11:58:50.025Z,101048.91
2023-08-11T12:01:19.045Z,101046.59
2023-08-11T12:03:47.405Z,101041.31
2023-08-11T12:06:14.821Z,101043.06
2023-08-11T12:08:42.879Z,101041.84
2023-08-11T12:11:13.592Z,101046.84
2023-08-11T12:13:41.421Z,101038.69
2023-08-11T12:16:09.733Z,101055.63
2023-08-11T12:18:38.405Z,101044.69
2023-08-11T12:21:04.971Z,101039.59
2023-08-11T12:23:32.670Z,101034.72
2023-08-11T12:25:59.388Z,101032.56
2023-08-11T12:28:27.253Z,101033.16
2023-08-11T12:30:53.631Z,101036.50
2023-08-11T12:33:20.296Z,101028.44
2023-08-11T12:35:48.847Z,101027.41
2023-08-11T12:38:18.896Z,101027.69
2023-08-11T12:40:46.312Z,101028.44
2023-08-11T12:43:14.271Z,101030.16
2023-08-11T12:45:42.295Z,101020.97
2023-08-11T12:48:09.940Z,101018.97
2023-08-11T12:50:37.305Z,101021.34
2023-08-11T12:53:08.242Z,101021.66
2023-08-11T12:55:36.099Z,101028.97
2023-08-11T12:58:03.324Z,101023.47
2023-08-11T13:00:30.240Z,101021.78
2023-08-11T13:02:57.173Z,101021.22
2023-08-11T13:05:24.070Z,101015.59
2023-08-11T13:07:50.551Z,101011.78
2023-08-11T13:10:17.327Z,101021.16
2023-08-11T13:12:45.944Z,101012.81
2023-08-11T13:15:12.740Z,101008.59
2023-08-11T13:17:39.602Z,101012.69
2023-08-11T13:20:10.891Z,100995.09
2023-08-11T13:22:37.954Z,100999.06
2023-08-11T13:25:04.912Z,100991.81
2023-08-11T13:27:31.689Z,100990.00
2023-08-11T13:29:58.086Z,100993.41
2023-08-11T13:32:24.503Z,100993.75
2023-08-11T13:34:50.937Z,100990.50
2023-08-11T13:37:17.338Z,100977.72
2023-08-11T13:39:43.756Z,100983.97
2023-08-11T13:42:11.845Z,100984.09
2023-08-11T13:44:38.257Z,100984.44
2023-08-11T13:47:04.942Z,100985.09
2023-08-11T13:49:31.324Z,100977.34
2023-08-11T13:51:57.724Z,100974.81
2023-08-11T13:54:24.220Z,100981.81
2023-08-11T13:56:50.629Z,100976.84
2023-08-11T13:59:17.036Z,100974.50
2023-08-11T14:01:43.498Z,100967.97
2023-08-11T14:04:10.236Z,100966.63
2023-08-11T14:06:36.798Z,100961.31
2023-08-11T14:09:04.262Z,100959.50
2023-08-11T14:11:30.863Z,100948.94
2023-08-11T14:13:57.824Z,100943.28
2023-08-11T14:16:24.270Z,100947.75
2023-08-11T14:18:51.743Z,100950.44
2023-08-11T14:21:19.636Z,100952.63
2023-08-11T14:23:47.881Z,100954.16
2023-08-11T14:26:14.276Z,100949.88
2023-08-11T14:28:40.759Z,100941.53
2023-08-11T14:31:07.535Z,100940.97
2023-08-11T14:33:34.167Z,100928.75
2023-08-11T14:38:29.967Z,100919.16
2023-08-11T14:40:56.349Z,100918.94
2023-08-11T14:43:22.798Z,100921.44
2023-08-11T14:45:49.230Z,100914.56
2023-08-11T14:48:15.724Z,100920.25
2023-08-11T14:50:42.288Z,100918.59
2023-08-11T14:53:08.687Z,100922.13
2023-08-11T14:55:35.200Z,100922.72
2023-08-11T14:58:01.741Z,100914.78
2023-08-11T15:00:28.157Z,100917.09
2023-08-11T15:02:54.639Z,100914.13
2023-08-11T15:05:21.132Z,100917.63
2023-08-11T15:07:47.669Z,100914.88
2023-08-11T15:10:14.201Z,100918.72
2023-08-11T15:12:42.410Z,100902.00
2023-08-11T15:15:09.363Z,100907.78
2023-08-11T15:17:35.901Z,100914.13
2023-08-11T15:20:02.523Z,100906.19
2023-08-11T15:22:29.094Z,100906.94
2023-08-11T15:24:55.585Z,100912.94
2023-08-11T15:27:21.982Z,100901.75
2023-08-11T15:29:48.347Z,100896.06
2023-08-11T15:32:14.979Z,100895.31
2023-08-11T15:34:41.663Z,100890.59
2023-08-11T15:37:08.150Z,100885.41
2023-08-11T15:39:34.578Z,100896.00
2023-08-11T15:42:01.055Z,100891.34
2023-08-11T15:44:27.470Z,100883.94
2023-08-11T15:46:53.996Z,100882.97
2023-08-11T15:49:20.417Z,100871.63
2023-08-11T15:51:46.966Z,100876.19
2023-08-11T15:54:13.368Z,100876.75
2023-08-11T15:56:39.787Z,100875.44
2023-08-11T15:59:07.039Z,100872.59
2023-08-11T16:01:33.609Z,100872.09
2023-08-11T16:04:00.189Z,100872.94
2023-08-11T16:06:26.634Z,100869.06
2023-08-11T16:08:53.060Z,100868.63
2023-08-11T16:11:19.569Z,100873.06
2023-08-11T16:13:46.019Z,100871.72
2023-08-11T16:16:12.464Z,100869.97
2023-08-11T16:18:38.951Z,100866.56
2023-08-11T16:21:09.423Z,100872.22
2023-08-11T16:23:36.726Z,100862.44
2023-08-11T16:26:03.558Z,100864.53
2023-08-11T16:28:30.441Z,100857.56
2023-08-11T16:30:57.105Z,100853.69
2023-08-11T16:33:23.557Z,100856.25
2023-08-11T16:35:50.067Z,100851.16
2023-08-11T16:38:16.472Z,100851.94
2023-08-11T16:40:42.913Z,100841.00
2023-08-11T16:43:10.503Z,100847.56
2023-08-11T16:45:37.085Z,100838.59
2023-08-11T16:48:04.243Z,100837.22
2023-08-11T16:50:30.724Z,100827.41
2023-08-11T16:52:57.564Z,100817.31
2023-08-11T16:55:24.509Z,100819.03
2023-08-11T16:57:51.323Z,100825.28
2023-08-11T17:00:18.046Z,100819.97
2023-08-11T17:02:44.712Z,100824.22
2023-08-11T17:05:12.169Z,100828.28
2023-08-11T17:07:38.580Z,100831.09
2023-08-11T17:10:05.566Z,100827.66
2023-08-11T17:12:31.986Z,100831.03
2023-08-11T17:14:58.462Z,100829.28
2023-08-11T17:17:25.170Z,100828.19
2023-08-11T17:19:51.685Z,100830.06
2023-08-11T17:22:18.276Z,100830.50
2023-08-11T17:24:44.790Z,100820.91
2023-08-11T17:27:11.378Z,100816.31
2023-08-11T17:29:37.796Z,100819.00
2023-08-11T17:32:04.498Z,100812.81
2023-08-11T17:34:32.586Z,100817.66
2023-08-11T17:37:00.512Z,100818.13
2023-08-11T17:39:28.020Z,100820.13
2023-08-11T17:42:06.127Z,100822.38
2023-08-11T17:44:32.516Z,100819.09
2023-08-11T17:46:59.068Z,100823.72
2023-08-11T17:49:25.506Z,100820.66
2023-08-11T17:51:51.897Z,100816.44
2023-08-11T17:54:19.634Z,100817.28
2023-08-11T17:56:46.042Z,100806.66
2023-08-11T17:59:12.584Z,100806.50
2023-08-11T18:01:39.292Z,100794.78
2023-08-11T18:04:07.908Z,100803.56
2023-08-11T18:06:35.750Z,100802.38
2023-08-11T18:09:04.601Z,100810.19
2023-08-11T18:11:31.314Z,100807.28
2023-08-11T18:13:57.754Z,100805.94
2023-08-11T18:16:24.376Z,100806.38
2023-08-11T18:18:50.777Z,100808.72
2023-08-11T18:21:20.914Z,100811.97
2023-08-11T18:23:48.135Z,100807.94
2023-08-11T18:26:15.414Z,100820.66
2023-08-11T18:28:42.690Z,100808.59
2023-08-11T18:31:09.152Z,100808.72
2023-08-11T18:33:35.660Z,100812.03
2023-08-11T18:36:02.172Z,100811.34
2023-08-11T18:38:28.531Z,100818.75
2023-08-11T18:40:55.119Z,100823.44
2023-08-11T18:43:21.595Z,100826.59
2023-08-11T18:45:48.014Z,100817.47
2023-08-11T18:48:15.715Z,100815.94
2023-08-11T18:50:42.204Z,100820.66
2023-08-11T18:53:08.625Z,100817.50
2023-08-11T18:55:35.066Z,100815.50
2023-08-11T18:58:01.502Z,100818.16
2023-08-11T19:00:27.912Z,100815.09
2023-08-11T19:02:54.487Z,100821.09
2023-08-11T19:05:20.929Z,100810.69
2023-08-11T19:07:47.311Z,100812.72
2023-08-11T19:10:13.720Z,100818.59
2023-08-11T19:12:40.193Z,100819.78
2023-08-11T19:15:07.289Z,100821.06
2023-08-11T19:17:33.721Z,100825.50
2023-08-11T19:20:00.601Z,100823.56
2023-08-11T19:22:27.139Z,100821.22
2023-08-11T19:24:53.498Z,100825.97
2023-08-11T19:27:19.877Z,100828.47
2023-08-11T19:29:46.271Z,100830.84
2023-08-11T19:32:13.253Z,100830.19
2023-08-11T19:34:39.809Z,100828.75
2023-08-11T19:37:06.196Z,100838.00
2023-08-11T19:39:32.590Z,100836.81
2023-08-11T19:41:59.012Z,100829.69
2023-08-11T19:44:25.423Z,100829.59
2023-08-11T19:46:51.920Z,100827.78
2023-08-11T19:49:21.348Z,100818.53
2023-08-11T19:51:48.549Z,100818.66
2023-08-11T19:54:14.953Z,100821.78
2023-08-11T19:56:43.721Z,100816.59
2023-08-11T19:59:10.172Z,100817.06
2023-08-11T20:01:36.688Z,100807.91
2023-08-11T20:04:03.200Z,100806.31
2023-08-11T20:06:29.632Z,100807.44
2023-08-11T20:08:56.000Z,100814.41
2023-08-11T20:11:22.516Z,100803.66
2023-08-11T20:13:48.948Z,100808.34
2023-08-11T20:16:15.450Z,100802.66
2023-08-11T20:18:41.907Z,100810.31
2023-08-11T20:21:08.783Z,100809.47
2023-08-11T20:23:35.667Z,100810.78
2023-08-11T20:26:02.103Z,100803.06
2023-08-11T20:28:28.629Z,100806.84
2023-08-11T20:31:01.261Z,100802.94
2023-08-11T20:33:27.765Z,100798.31
2023-08-11T20:35:54.293Z,100793.31
2023-08-11T20:38:20.727Z,100785.78
2023-08-11T20:40:47.903Z,100793.56
2023-08-11T20:43:14.661Z,100785.09
2023-08-11T20:45:41.104Z,100784.72
2023-08-11T20:48:07.626Z,100778.41
2023-08-11T20:50:37.287Z,100777.81
2023-08-11T20:53:03.857Z,100781.44
2023-08-11T20:55:30.276Z,100776.97
2023-08-11T20:57:56.634Z,100783.75
2023-08-11T21:00:23.558Z,100779.16
2023-08-11T21:02:50.064Z,100781.31
2023-08-11T21:05:16.637Z,100778.97
2023-08-11T21:07:43.058Z,100783.19
2023-08-11T21:10:10.059Z,100777.28
2023-08-11T21:12:36.550Z,100775.16
2023-08-11T21:15:03.916Z,100776.44
2023-08-11T21:17:30.318Z,100780.47
2023-08-11T21:19:56.756Z,100777.06
2023-08-11T21:22:23.157Z,100784.69
2023-08-11T21:24:49.507Z,100778.38
2023-08-11T21:27:17.651Z,100785.97
2023-08-11T21:29:44.217Z,100790.16
2023-08-11T21:32:10.662Z,100794.59
2023-08-11T21:34:37.075Z,100789.53
2023-08-11T21:37:03.611Z,100794.78
2023-08-11T21:39:29.974Z,100792.25
2023-08-11T21:41:56.366Z,100783.66
2023-08-11T21:44:22.774Z,100785.09
2023-08-11T21:46:49.192Z,100788.28
2023-08-11T21:49:15.651Z,100782.16
2023-08-11T21:51:42.078Z,100785.94
2023-08-11T21:54:08.438Z,100784.66
2023-08-11T21:56:35.164Z,100783.00
2023-08-11T21:59:01.504Z,100776.25
2023-08-11T22:01:27.979Z,100776.44
2023-08-11T22:03:54.388Z,100777.88
2023-08-11T22:06:21.015Z,100782.50
2023-08-11T22:08:47.418Z,100780.59
2023-08-11T22:11:26.054Z,100783.13
2023-08-11T22:14:00.405Z,100777.03
2023-08-11T22:16:26.848Z,100779.53
2023-08-11T22:18:53.287Z,100780.97
2023-08-11T22:21:19.644Z,100776.38
2023-08-11T22:23:46.005Z,100783.28
2023-08-11T22:26:12.375Z,100775.03
2023-08-11T22:28:38.900Z,100779.47
2023-08-11T22:31:05.665Z,100784.00
2023-08-11T22:33:32.081Z,100785.91
2023-08-11T22:35:58.447Z,100783.13
2023-08-11T22:38:24.842Z,100774.31
2023-08-11T22:40:51.197Z,100778.94
2023-08-11T22:43:17.947Z,100774.06
2023-08-11T22:45:44.411Z,100774.69
2023-08-11T22:48:10.984Z,100770.84
2023-08-11T22:50:37.419Z,100760.53
2023-08-11T22:53:04.274Z,100760.72
2023-08-11T22:55:31.652Z,100769.47
2023-08-11T22:57:59.756Z,100775.16
2023-08-11T23:00:26.628Z,100782.28
2023-08-11T23:02:53.196Z,100773.88
2023-08-11T23:05:19.729Z,100777.03
2023-08-11T23:07:46.339Z,100780.34
2023-08-11T23:10:12.963Z,100774.88
2023-08-11T23:12:39.390Z,100774.47
2023-08-11T23:15:07.672Z,100772.31
2023-08-11T23:17:34.413Z,100757.97
2023-08-11T23:20:01.538Z,100765.09
2023-08-11T23:22:28.127Z,100760.69
2023-08-11T23:24:54.720Z,100762.75
2023-08-11T23:27:22.965Z,100757.75
2023-08-11T23:29:49.419Z,100760.69
2023-08-11T23:32:15.949Z,100758.50
2023-08-11T23:34:42.336Z,100770.84
2023-08-11T23:37:09.150Z,100762.03
2023-08-11T23:39:35.841Z,100762.19
2023-08-11T23:42:02.307Z,100765.47
2023-08-11T23:44:28.672Z,100756.66
2023-08-11T23:46:55.183Z,100760.53
2023-08-11T23:49:21.566Z,100768.13
2023-08-11T23:51:47.989Z,100755.63
2023-08-11T23:54:14.504Z,100755.94
2023-08-11T23:56:40.907Z,100745.66
2023-08-11T23:59:07.364Z,100739.16
